createdAt,value
2022-11-28T00:00:22.394Z,7.10
2022-11-28T00:02:55.119Z,7.10
2022-11-28T00:05:27.051Z,7.10
2022-11-28T00:07:59.616Z,6.90
2022-11-28T00:13:04.604Z,7.00
2022-11-28T00:15:36.890Z,7.00
2022-11-28T00:18:10.679Z,7.10
2022-11-28T00:20:42.635Z,7.10
2022-11-28T00:23:15.149Z,7.00
2022-11-28T00:25:47.150Z,7.00
2022-11-28T00:28:19.659Z,7.00
2022-11-28T00:30:51.652Z,7.00
2022-11-28T00:33:24.820Z,7.00
2022-11-28T00:36:02.164Z,7.10
2022-11-28T00:41:11.247Z,7.30
2022-11-28T00:43:45.973Z,7.00
2022-11-28T00:46:20.159Z,7.00
2022-11-28T00:48:53.334Z,6.90
2022-11-28T00:51:29.074Z,6.90
2022-11-28T00:54:03.873Z,6.90
2022-11-28T00:56:39.626Z,6.90
2022-11-28T00:59:12.094Z,6.90
2022-11-28T01:01:44.451Z,6.80
2022-11-28T01:04:18.178Z,7.00
2022-11-28T01:09:24.872Z,7.00
2022-11-28T01:11:56.799Z,7.00
2022-11-28T01:14:30.857Z,6.90
2022-11-28T01:17:02.738Z,7.00
2022-11-28T01:19:35.286Z,7.10
2022-11-28T01:22:07.224Z,7.10
2022-11-28T01:24:39.830Z,7.10
2022-11-28T01:27:12.039Z,7.10
2022-11-28T01:29:44.500Z,7.00
2022-11-28T01:34:49.771Z,6.90
2022-11-28T01:37:21.719Z,6.90
2022-11-28T01:39:54.202Z,6.90
2022-11-28T01:42:26.136Z,6.90
2022-11-28T01:45:13.463Z,6.90
2022-11-28T01:47:46.074Z,7.00
2022-11-28T01:50:19.099Z,7.00
2022-11-28T01:52:55.833Z,7.00
2022-11-28T01:55:34.018Z,6.90
2022-11-28T01:58:06.869Z,6.90
2022-11-28T02:00:39.433Z,6.90
2022-11-28T02:03:22.595Z,6.90
2022-11-28T02:05:56.016Z,6.80
2022-11-28T02:11:44.861Z,6.60
2022-11-28T02:15:12.239Z,6.60
2022-11-28T02:18:01.070Z,6.60
2022-11-28T02:21:03.819Z,6.60
2022-11-28T02:24:13.139Z,6.60
2022-11-28T02:27:08.209Z,6.70
2022-11-28T02:30:07.275Z,6.80
2022-11-28T02:33:06.312Z,6.80
2022-11-28T02:36:08.514Z,6.80
2022-11-28T02:39:44.627Z,6.90
2022-11-28T02:42:30.582Z,6.90
2022-11-28T02:45:12.625Z,7.00
2022-11-28T02:47:55.529Z,6.90
2022-11-28T02:51:14.067Z,7.00
2022-11-28T02:56:52.199Z,7.00
2022-11-28T02:59:40.235Z,7.00
2022-11-28T03:02:30.763Z,7.00
2022-11-28T03:05:05.251Z,7.20
2022-11-28T03:07:46.294Z,7.00
2022-11-28T03:11:03.426Z,7.00
2022-11-28T03:14:09.494Z,7.00
2022-11-28T03:17:25.229Z,6.90
2022-11-28T03:20:06.417Z,7.00
2022-11-28T03:22:47.897Z,7.00
2022-11-28T03:25:55.461Z,7.00
2022-11-28T03:28:46.060Z,7.10
2022-11-28T03:31:42.879Z,7.00
2022-11-28T03:34:20.323Z,6.90
2022-11-28T03:37:09.001Z,6.90
2022-11-28T03:39:47.251Z,6.90
2022-11-28T03:42:29.532Z,7.00
2022-11-28T03:45:27.484Z,7.00
2022-11-28T03:48:07.377Z,7.00
2022-11-28T03:50:49.832Z,6.90
2022-11-28T03:53:28.572Z,6.90
2022-11-28T03:56:11.164Z,6.90
2022-11-28T03:58:58.526Z,6.90
2022-11-28T04:04:32.565Z,6.90
2022-11-28T04:07:39.003Z,6.90
2022-11-28T04:10:25.297Z,7.00
2022-11-28T04:13:22.164Z,7.00
2022-11-28T04:16:14.187Z,7.00
2022-11-28T04:19:31.000Z,7.00
2022-11-28T04:22:20.323Z,6.90
2022-11-28T04:24:57.812Z,7.00
2022-11-28T04:27:42.276Z,7.00
2022-11-28T04:30:15.003Z,7.10
2022-11-28T04:32:52.425Z,7.10
2022-11-28T04:35:37.940Z,7.10
2022-11-28T04:38:12.661Z,7.00
2022-11-28T04:40:57.595Z,7.60
2022-11-28T04:43:37.722Z,7.20
2022-11-28T04:46:16.192Z,7.10
2022-11-28T04:51:49.757Z,6.90
2022-11-28T04:55:22.828Z,6.90
2022-11-28T04:58:13.453Z,6.80
2022-11-28T05:00:49.038Z,6.80
2022-11-28T05:03:22.703Z,6.80
2022-11-28T05:05:54.893Z,6.80
2022-11-28T05:08:27.633Z,6.70
2022-11-28T05:13:32.577Z,6.70
2022-11-28T05:21:11.934Z,6.80
2022-11-28T05:23:46.122Z,6.90
2022-11-28T05:26:21.368Z,6.70
2022-11-28T05:31:26.740Z,6.70
2022-11-28T05:33:59.145Z,6.80
2022-11-28T05:44:11.143Z,6.80
2022-11-28T05:46:43.697Z,7.40
2022-11-28T05:49:16.083Z,7.10
2022-11-28T05:51:48.965Z,7.50
2022-11-28T05:54:21.679Z,7.80
2022-11-28T05:56:54.012Z,7.60
2022-11-28T05:59:25.892Z,7.20
2022-11-28T06:01:58.704Z,7.20
2022-11-28T06:07:04.032Z,7.70
2022-11-28T06:09:36.539Z,7.30
2022-11-28T06:12:09.815Z,7.50
2022-11-28T06:17:14.931Z,8.60
2022-11-28T06:19:46.889Z,8.40
2022-11-28T06:27:25.278Z,8.60
2022-11-28T06:32:30.377Z,8.80
2022-11-28T06:35:02.526Z,8.50
2022-11-28T06:40:08.111Z,8.40
2022-11-28T06:42:40.478Z,8.20
2022-11-28T06:45:13.005Z,8.70
2022-11-28T06:47:45.775Z,8.20
2022-11-28T06:50:17.738Z,8.30
2022-11-28T06:55:23.066Z,8.20
2022-11-28T06:57:55.948Z,8.50
2022-11-28T07:03:00.991Z,8.60
2022-11-28T07:08:06.387Z,8.70
2022-11-28T07:10:38.830Z,8.80
2022-11-28T07:15:53.163Z,10.60
2022-11-28T07:18:25.678Z,9.00
2022-11-28T07:20:58.790Z,8.80
2022-11-28T07:23:31.037Z,9.00
2022-11-28T07:26:05.966Z,9.30
2022-11-28T07:31:14.743Z,9.80
2022-11-28T07:33:50.809Z,10.10
2022-11-28T07:36:26.447Z,10.30
2022-11-28T07:39:01.832Z,10.20
2022-11-28T07:44:10.520Z,10.30
2022-11-28T07:46:43.436Z,10.50
2022-11-28T07:49:16.841Z,10.80
2022-11-28T07:54:22.191Z,11.30
2022-11-28T08:02:19.209Z,11.40
2022-11-28T08:04:55.132Z,11.50
2022-11-28T08:10:00.601Z,11.60
2022-11-28T08:17:38.622Z,11.70
2022-11-28T08:22:44.152Z,11.80
2022-11-28T08:25:16.638Z,11.80
2022-11-28T08:27:49.298Z,11.70
2022-11-28T08:30:21.890Z,11.70
2022-11-28T08:32:54.172Z,11.70
2022-11-28T08:40:35.107Z,11.70
2022-11-28T08:43:08.041Z,11.70
2022-11-28T08:48:13.117Z,11.70
2022-11-28T08:50:50.190Z,11.70
2022-11-28T08:53:23.749Z,11.70
2022-11-28T09:03:35.147Z,11.70
2022-11-28T09:06:07.377Z,11.80
2022-11-28T09:08:40.162Z,11.80
2022-11-28T09:11:16.022Z,11.80
2022-11-28T09:16:21.663Z,11.80
2022-11-28T09:19:00.397Z,11.70
2022-11-28T09:21:33.453Z,11.80
2022-11-28T09:24:07.312Z,11.80
2022-11-28T09:26:39.374Z,11.80
2022-11-28T09:31:47.385Z,11.80
2022-11-28T09:36:54.063Z,11.80
2022-11-28T09:42:17.672Z,13.00
2022-11-28T09:45:00.973Z,11.80
2022-11-28T09:47:36.797Z,11.80
2022-11-28T09:50:21.996Z,11.80
2022-11-28T09:53:31.146Z,11.70
2022-11-28T09:56:16.496Z,11.60
2022-11-28T09:59:00.687Z,11.50
2022-11-28T10:02:09.691Z,11.30
2022-11-28T10:04:43.119Z,11.20
2022-11-28T10:07:55.103Z,11.20
2022-11-28T10:10:51.178Z,11.10
2022-11-28T10:14:17.451Z,11.10
2022-11-28T10:17:15.100Z,10.90
2022-11-28T10:19:55.400Z,10.80
2022-11-28T10:22:45.374Z,10.80
2022-11-28T10:25:34.345Z,10.70
2022-11-28T10:28:14.792Z,10.80
2022-11-28T10:30:55.820Z,10.80
2022-11-28T10:33:38.476Z,10.80
2022-11-28T10:36:29.037Z,10.90
2022-11-28T10:39:12.839Z,10.90
2022-11-28T10:42:13.946Z,10.90
2022-11-28T10:45:08.985Z,10.80
2022-11-28T10:48:38.008Z,10.70
2022-11-28T10:51:33.221Z,10.50
2022-11-28T10:57:54.991Z,10.40
2022-11-28T11:00:26.876Z,10.40
2022-11-28T11:03:02.653Z,10.40
2022-11-28T11:05:36.293Z,10.40
2022-11-28T11:08:26.591Z,10.40
2022-11-28T11:11:04.868Z,10.20
2022-11-28T11:14:01.028Z,10.30
2022-11-28T11:17:06.865Z,10.40
2022-11-28T11:19:41.145Z,10.20
2022-11-28T11:22:29.113Z,10.10
2022-11-28T11:25:16.091Z,10.20
2022-11-28T11:28:03.761Z,10.00
2022-11-28T11:30:42.850Z,10.00
2022-11-28T11:33:18.145Z,10.20
2022-11-28T11:35:50.197Z,10.00
2022-11-28T11:40:55.513Z,10.10
2022-11-28T11:43:35.800Z,10.20
2022-11-28T11:46:16.317Z,10.10
2022-11-28T11:48:53.110Z,12.10
2022-11-28T11:51:28.877Z,10.10
2022-11-28T11:54:16.192Z,10.10
2022-11-28T11:57:00.619Z,10.10
2022-11-28T11:59:49.447Z,10.00
2022-11-28T12:02:56.483Z,10.20
2022-11-28T12:06:12.752Z,10.20
2022-11-28T12:08:52.344Z,10.20
2022-11-28T12:11:46.884Z,10.10
2022-11-28T12:14:36.933Z,10.10
2022-11-28T12:18:12.835Z,10.30
2022-11-28T12:21:13.987Z,10.50
2022-11-28T12:24:16.240Z,10.60
2022-11-28T12:27:31.500Z,10.60
2022-11-28T12:30:44.986Z,10.70
2022-11-28T12:33:32.065Z,10.50
2022-11-28T12:36:39.070Z,10.50
2022-11-28T12:39:46.845Z,10.70
2022-11-28T12:42:36.445Z,10.50
2022-11-28T12:45:48.654Z,10.60
2022-11-28T12:48:51.619Z,10.70
2022-11-28T12:51:42.666Z,10.60
2022-11-28T12:54:36.348Z,10.60
2022-11-28T13:00:09.449Z,10.50
2022-11-28T13:03:14.256Z,10.50
2022-11-28T13:06:16.563Z,10.40
2022-11-28T13:09:16.621Z,10.30
2022-11-28T13:12:16.752Z,10.30
2022-11-28T13:18:23.129Z,10.40
2022-11-28T13:21:07.217Z,10.40
2022-11-28T13:24:05.358Z,10.40
2022-11-28T13:26:39.202Z,10.40
2022-11-28T13:29:44.159Z,10.40
2022-11-28T13:32:51.053Z,10.50
2022-11-28T13:35:24.363Z,10.50
2022-11-28T13:38:36.225Z,10.50
2022-11-28T13:45:19.490Z,10.50
2022-11-28T13:50:30.403Z,10.60
2022-11-28T13:53:12.597Z,10.50
2022-11-28T13:55:46.785Z,10.50
2022-11-28T13:58:32.112Z,10.40
2022-11-28T14:01:11.248Z,10.50
2022-11-28T14:03:49.638Z,10.50
2022-11-28T14:06:32.231Z,10.50
2022-11-28T14:09:11.732Z,10.40
2022-11-28T14:12:14.269Z,10.40
2022-11-28T14:15:17.412Z,10.40
2022-11-28T14:18:55.872Z,10.40
2022-11-28T14:21:59.047Z,10.50
2022-11-28T14:25:03.303Z,10.60
2022-11-28T14:27:39.930Z,10.60
2022-11-28T14:30:34.773Z,10.60
2022-11-28T14:33:20.384Z,10.60
2022-11-28T14:36:06.504Z,10.50
2022-11-28T14:38:43.914Z,10.50
2022-11-28T14:43:49.888Z,10.30
2022-11-28T14:46:33.979Z,10.40
2022-11-28T14:49:18.559Z,10.30
2022-11-28T14:52:04.740Z,10.20
2022-11-28T14:54:46.548Z,10.30
2022-11-28T14:57:25.100Z,10.30
2022-11-28T15:00:00.885Z,10.40
2022-11-28T15:03:09.427Z,10.20
2022-11-28T15:06:23.317Z,10.10
2022-11-28T15:09:22.204Z,10.10
2022-11-28T15:12:23.489Z,10.10
2022-11-28T15:14:59.597Z,9.90
2022-11-28T15:17:34.180Z,10.00
2022-11-28T15:20:17.567Z,9.90
2022-11-28T15:22:49.691Z,9.70
2022-11-28T15:25:26.356Z,9.70
2022-11-28T15:28:13.309Z,9.60
2022-11-28T15:30:49.808Z,9.50
2022-11-28T15:33:26.038Z,9.50
2022-11-28T15:36:10.882Z,9.40
2022-11-28T15:38:44.700Z,9.30
2022-11-28T15:41:25.150Z,9.40
2022-11-28T15:43:57.694Z,9.50
2022-11-28T15:46:33.615Z,9.50
2022-11-28T15:49:07.205Z,9.50
2022-11-28T15:51:39.088Z,9.50
2022-11-28T15:54:44.860Z,9.50
2022-11-28T15:57:23.501Z,9.60
2022-11-28T15:59:57.248Z,8.50
2022-11-28T16:02:34.593Z,9.70
2022-11-28T16:05:22.302Z,9.70
2022-11-28T16:10:34.279Z,9.60
2022-11-28T16:13:14.054Z,9.50
2022-11-28T16:15:50.343Z,9.60
2022-11-28T16:18:22.800Z,9.60
2022-11-28T16:20:58.814Z,9.60
2022-11-28T16:23:36.183Z,9.60
2022-11-28T16:26:31.153Z,9.60
2022-11-28T16:29:09.684Z,9.60
2022-11-28T16:31:47.745Z,9.50
2022-11-28T16:34:51.216Z,9.60
2022-11-28T16:37:28.468Z,9.60
2022-11-28T16:40:15.988Z,9.60
2022-11-28T16:42:55.953Z,9.60
2022-11-28T16:45:32.973Z,9.60
2022-11-28T16:48:15.243Z,9.60
2022-11-28T16:51:03.268Z,9.60
2022-11-28T16:53:58.974Z,9.60
2022-11-28T16:56:30.752Z,9.60
2022-11-28T16:59:19.840Z,9.60
2022-11-28T17:01:53.636Z,9.60
2022-11-28T17:04:29.774Z,9.60
2022-11-28T17:07:05.190Z,9.60
2022-11-28T17:09:38.054Z,9.60
2022-11-28T17:12:30.057Z,9.60
2022-11-28T17:15:02.918Z,9.70
2022-11-28T17:17:36.346Z,9.60
2022-11-28T17:20:10.036Z,9.60
2022-11-28T17:22:47.785Z,9.70
2022-11-28T17:25:21.493Z,9.70
2022-11-28T17:33:33.290Z,9.70
2022-11-28T17:36:06.324Z,9.70
2022-11-28T17:38:38.372Z,9.60
2022-11-28T17:41:14.891Z,9.60
2022-11-28T17:43:47.155Z,9.70
2022-11-28T17:46:21.363Z,9.60
2022-11-28T17:48:53.752Z,9.60
2022-11-28T17:51:26.333Z,9.60
2022-11-28T17:56:32.474Z,9.70
2022-11-28T18:04:11.588Z,9.70
2022-11-28T18:06:45.913Z,9.70
2022-11-28T18:11:53.019Z,9.70
2022-11-28T18:14:25.788Z,9.70
2022-11-28T18:19:30.770Z,9.60
2022-11-28T18:22:02.825Z,9.60
2022-11-28T18:24:36.466Z,9.60
2022-11-28T18:27:08.327Z,9.60
2022-11-28T18:32:14.251Z,9.60
2022-11-28T18:34:47.751Z,9.60
2022-11-28T18:39:52.800Z,9.60
2022-11-28T18:42:24.991Z,9.50
2022-11-28T18:50:05.915Z,9.50
2022-11-28T18:57:47.012Z,9.50
2022-11-28T19:00:20.549Z,9.50
2022-11-28T19:02:54.852Z,9.50
2022-11-28T19:05:27.225Z,9.50
2022-11-28T19:07:59.218Z,9.50
2022-11-28T19:13:04.409Z,9.50
2022-11-28T19:15:41.008Z,9.50
2022-11-28T19:18:13.601Z,9.50
2022-11-28T19:20:47.062Z,9.50
2022-11-28T19:23:19.293Z,9.50
2022-11-28T19:25:52.054Z,9.50
2022-11-28T19:36:12.267Z,9.50
2022-11-28T19:41:21.564Z,9.50
2022-11-28T19:46:31.872Z,9.50
2022-11-28T19:49:16.263Z,9.50
2022-11-28T19:51:50.775Z,9.50
2022-11-28T19:54:22.919Z,9.50
2022-11-28T19:56:57.946Z,9.50
2022-11-28T19:59:31.259Z,9.50
2022-11-28T20:02:06.323Z,9.50
2022-11-28T20:04:38.430Z,9.50
2022-11-28T20:09:44.119Z,9.50
2022-11-28T20:12:18.054Z,9.50
2022-11-28T20:14:50.958Z,9.50
2022-11-28T20:17:23.318Z,9.50
2022-11-28T20:19:55.313Z,9.60
2022-11-28T20:22:28.133Z,9.50
2022-11-28T20:27:34.544Z,9.50
2022-11-28T20:30:09.854Z,9.50
2022-11-28T20:32:43.475Z,9.50
2022-11-28T20:35:16.713Z,9.50
2022-11-28T20:37:50.315Z,9.50
2022-11-28T20:48:01.781Z,9.60
2022-11-28T20:50:34.385Z,9.60
2022-11-28T20:55:39.545Z,9.60
2022-11-28T21:00:46.575Z,9.60
2022-11-28T21:03:19.490Z,9.60
2022-11-28T21:05:57.827Z,9.60
2022-11-28T21:08:34.022Z,9.70
2022-11-28T21:11:36.914Z,9.60
2022-11-28T21:14:12.287Z,9.60
2022-11-28T21:19:17.089Z,9.60
2022-11-28T21:21:49.401Z,9.60
2022-11-28T21:24:21.494Z,9.60
2022-11-28T21:31:59.786Z,9.50
2022-11-28T21:34:33.738Z,9.50
2022-11-28T21:37:06.460Z,9.50
2022-11-28T21:45:11.167Z,9.50
2022-11-28T21:47:43.884Z,9.50
2022-11-28T21:52:48.899Z,9.40
2022-11-28T21:55:20.783Z,9.40
2022-11-28T21:57:53.531Z,9.50
2022-11-28T22:00:45.951Z,9.50
2022-11-28T22:03:18.280Z,9.50
2022-11-28T22:05:52.477Z,9.50
2022-11-28T22:08:25.083Z,9.40
2022-11-28T22:11:04.007Z,9.40
2022-11-28T22:13:36.143Z,9.40
2022-11-28T22:16:11.028Z,9.40
2022-11-28T22:18:43.479Z,9.50
2022-11-28T22:21:49.787Z,9.50
2022-11-28T22:26:41.568Z,9.50
2022-11-28T22:29:15.003Z,9.50
2022-11-28T22:34:20.539Z,9.50
2022-11-28T22:36:53.601Z,9.50
2022-11-28T22:41:59.517Z,9.50
2022-11-28T22:44:31.587Z,9.50
2022-11-28T22:49:38.157Z,9.40
2022-11-28T22:52:11.092Z,9.50
2022-11-28T22:54:43.293Z,9.50
2022-11-28T22:57:17.269Z,9.50
2022-11-28T22:59:49.159Z,9.50
2022-11-28T23:02:22.161Z,9.40
2022-11-28T23:07:27.467Z,9.40
2022-11-28T23:10:00.140Z,9.40
2022-11-28T23:12:33.007Z,9.40
2022-11-28T23:15:06.139Z,9.40
2022-11-28T23:17:40.980Z,9.40
2022-11-28T23:20:14.707Z,9.40
2022-11-28T23:22:47.797Z,8.70
2022-11-28T23:25:20.187Z,9.40
2022-11-28T23:27:53.550Z,9.40
2022-11-28T23:30:25.432Z,9.40
2022-11-28T23:35:31.870Z,9.30
2022-11-28T23:38:04.708Z,9.30
2022-11-28T23:40:36.567Z,9.30
2022-11-28T23:43:09.256Z,9.30
2022-11-28T23:48:16.167Z,9.20
2022-11-28T23:50:49.262Z,9.20
2022-11-28T23:55:54.299Z,9.20
2022-11-28T23:58:26.827Z,9.20
